createdAt,value
2022-08-16T00:01:33.857Z,20.00
2022-08-16T00:04:05.248Z,20.00
2022-08-16T00:06:33.831Z,20.00
2022-08-16T00:09:04.898Z,20.00
2022-08-16T00:11:36.436Z,20.00
2022-08-16T00:14:08.843Z,20.00
2022-08-16T00:17:00.879Z,20.00
2022-08-16T00:19:28.542Z,20.00
2022-08-16T00:22:12.823Z,20.00
2022-08-16T00:24:44.808Z,20.00
2022-08-16T00:27:15.114Z,20.00
2022-08-16T00:29:44.775Z,20.00
2022-08-16T00:32:18.017Z,20.00
2022-08-16T00:34:53.650Z,20.00
2022-08-16T00:37:24.398Z,20.00
2022-08-16T00:39:57.514Z,20.00
2022-08-16T00:42:30.558Z,20.00
2022-08-16T00:45:08.481Z,20.00
2022-08-16T00:47:42.728Z,20.00
2022-08-16T00:50:19.565Z,20.00
2022-08-16T00:52:53.557Z,20.00
2022-08-16T00:55:23.253Z,20.00
2022-08-16T00:57:58.512Z,20.00
2022-08-16T01:00:30.324Z,20.00
2022-08-16T01:02:59.734Z,20.00
2022-08-16T01:05:28.057Z,20.10
2022-08-16T01:07:59.646Z,20.00
2022-08-16T01:10:32.574Z,20.10
2022-08-16T01:13:05.378Z,20.00
2022-08-16T01:15:36.154Z,20.00
2022-08-16T01:18:19.338Z,20.00
2022-08-16T01:21:02.447Z,19.90
2022-08-16T01:24:00.881Z,19.90
2022-08-16T01:26:34.082Z,19.90
2022-08-16T01:29:06.242Z,19.90
2022-08-16T01:31:42.854Z,19.90
2022-08-16T01:34:23.450Z,19.90
2022-08-16T01:37:02.564Z,19.90
2022-08-16T01:39:31.035Z,19.90
2022-08-16T01:42:12.141Z,19.80
2022-08-16T01:44:41.883Z,19.90
2022-08-16T01:47:12.052Z,19.90
2022-08-16T01:49:45.770Z,19.90
2022-08-16T01:52:30.633Z,19.80
2022-08-16T01:54:59.390Z,19.80
2022-08-16T01:57:31.465Z,19.90
2022-08-16T02:00:00.030Z,19.90
2022-08-16T02:02:28.879Z,19.90
2022-08-16T02:04:57.561Z,19.90
2022-08-16T02:07:27.057Z,19.90
2022-08-16T02:09:58.796Z,19.90
2022-08-16T02:12:39.863Z,19.90
2022-08-16T02:15:25.400Z,19.90
2022-08-16T02:17:56.565Z,19.90
2022-08-16T02:20:26.414Z,19.90
2022-08-16T02:22:56.248Z,19.90
2022-08-16T02:25:25.054Z,19.90
2022-08-16T02:28:19.298Z,19.90
2022-08-16T02:30:51.646Z,19.90
2022-08-16T02:33:24.338Z,19.90
2022-08-16T02:35:55.373Z,19.80
2022-08-16T02:38:28.377Z,19.80
2022-08-16T02:40:56.661Z,19.80
2022-08-16T02:43:27.399Z,19.70
2022-08-16T02:45:56.309Z,19.70
2022-08-16T02:48:29.580Z,19.70
2022-08-16T02:51:05.814Z,19.70
2022-08-16T02:53:39.191Z,19.70
2022-08-16T02:56:12.193Z,19.70
2022-08-16T02:58:46.326Z,19.60
2022-08-16T03:01:25.422Z,19.60
2022-08-16T03:04:39.204Z,19.60
2022-08-16T03:06:51.328Z,19.60
2022-08-16T03:09:28.833Z,19.60
2022-08-16T03:11:58.222Z,19.60
2022-08-16T03:14:30.525Z,19.60
2022-08-16T03:17:00.761Z,19.70
2022-08-16T03:19:47.983Z,19.60
2022-08-16T03:22:28.245Z,19.60
2022-08-16T03:24:58.720Z,19.60
2022-08-16T03:27:34.201Z,19.60
2022-08-16T03:30:15.230Z,19.60
2022-08-16T03:32:47.326Z,19.60
2022-08-16T03:35:17.799Z,19.60
2022-08-16T03:38:02.480Z,19.60
2022-08-16T03:40:33.251Z,19.60
2022-08-16T03:43:20.642Z,19.60
2022-08-16T03:45:52.682Z,19.60
2022-08-16T03:48:36.749Z,19.60
2022-08-16T03:51:06.544Z,19.70
2022-08-16T03:53:37.735Z,19.60
2022-08-16T03:56:07.606Z,19.60
2022-08-16T03:58:38.394Z,19.60
2022-08-16T04:01:08.119Z,19.60
2022-08-16T04:03:36.516Z,19.50
2022-08-16T04:06:09.761Z,19.50
2022-08-16T04:08:39.638Z,19.50
2022-08-16T04:11:08.274Z,19.50
2022-08-16T04:14:00.680Z,19.50
2022-08-16T04:16:28.978Z,19.50
2022-08-16T04:19:01.426Z,19.50
2022-08-16T04:21:32.046Z,19.40
2022-08-16T04:24:01.140Z,19.40
2022-08-16T04:26:30.704Z,19.40
2022-08-16T04:29:21.651Z,19.40
2022-08-16T04:31:56.284Z,19.40
2022-08-16T04:34:27.447Z,19.40
2022-08-16T04:36:57.508Z,19.40
2022-08-16T04:39:47.471Z,19.30
2022-08-16T04:42:17.677Z,19.30
2022-08-16T04:44:53.959Z,19.30
2022-08-16T04:47:33.050Z,19.30
2022-08-16T04:50:04.087Z,19.30
2022-08-16T04:52:44.245Z,19.30
2022-08-16T04:55:17.291Z,19.30
2022-08-16T04:57:53.238Z,19.40
2022-08-16T05:00:36.166Z,19.30
2022-08-16T05:03:10.197Z,19.40
2022-08-16T05:05:55.491Z,19.40
2022-08-16T05:08:30.769Z,19.40
2022-08-16T05:11:01.354Z,19.40
2022-08-16T05:13:41.176Z,19.40
2022-08-16T05:16:20.116Z,19.40
2022-08-16T05:18:51.816Z,19.40
2022-08-16T05:21:22.137Z,19.40
2022-08-16T05:23:55.763Z,19.40
2022-08-16T05:26:28.046Z,19.50
2022-08-16T05:28:56.996Z,19.50
2022-08-16T05:31:31.220Z,19.50
2022-08-16T05:34:03.705Z,19.50
2022-08-16T05:36:40.586Z,19.50
2022-08-16T05:39:13.542Z,19.60
2022-08-16T05:41:46.313Z,19.60
2022-08-16T05:44:22.873Z,19.60
2022-08-16T05:46:54.993Z,19.60
2022-08-16T05:49:38.382Z,19.70
2022-08-16T05:52:13.462Z,19.80
2022-08-16T05:54:47.117Z,19.80
2022-08-16T05:57:17.427Z,19.80
2022-08-16T06:00:00.263Z,19.90
2022-08-16T06:02:34.214Z,19.90
2022-08-16T06:05:03.887Z,20.00
2022-08-16T06:07:32.386Z,20.00
2022-08-16T06:10:01.490Z,20.10
2022-08-16T06:12:30.956Z,20.10
2022-08-16T06:15:09.709Z,20.10
2022-08-16T06:17:48.255Z,20.20
2022-08-16T06:20:24.274Z,20.20
2022-08-16T06:22:58.889Z,20.20
2022-08-16T06:25:36.666Z,20.30
2022-08-16T06:28:10.224Z,20.30
2022-08-16T06:30:45.458Z,20.40
2022-08-16T06:33:22.807Z,20.40
2022-08-16T06:35:55.292Z,20.50
2022-08-16T06:38:32.959Z,20.60
2022-08-16T06:41:05.598Z,20.60
2022-08-16T06:43:44.088Z,20.60
2022-08-16T06:46:31.626Z,20.70
2022-08-16T06:49:05.146Z,20.80
2022-08-16T06:51:46.572Z,20.90
2022-08-16T06:54:16.810Z,21.00
2022-08-16T06:56:52.311Z,21.20
2022-08-16T06:59:25.802Z,21.40
2022-08-16T07:01:58.389Z,21.60
2022-08-16T07:04:37.234Z,21.80
2022-08-16T07:07:09.552Z,22.00
2022-08-16T07:09:38.276Z,22.20
2022-08-16T07:12:08.101Z,22.30
2022-08-16T07:14:36.314Z,22.40
2022-08-16T07:17:12.982Z,22.50
2022-08-16T07:20:03.081Z,22.50
2022-08-16T07:22:37.668Z,22.60
2022-08-16T07:25:10.168Z,22.70
2022-08-16T07:27:40.162Z,22.70
2022-08-16T07:30:38.394Z,22.80
2022-08-16T07:33:04.666Z,23.00
2022-08-16T07:35:35.386Z,23.00
2022-08-16T07:38:06.450Z,23.10
2022-08-16T07:40:59.431Z,23.30
2022-08-16T07:43:32.071Z,23.40
2022-08-16T07:46:01.414Z,23.50
2022-08-16T07:48:30.049Z,23.60
2022-08-16T07:51:00.850Z,23.70
2022-08-16T07:53:43.894Z,23.80
2022-08-16T07:56:17.900Z,23.90
2022-08-16T07:58:48.873Z,23.90
2022-08-16T08:01:24.674Z,24.00
2022-08-16T08:03:58.721Z,24.10
2022-08-16T08:06:36.493Z,24.20
2022-08-16T08:09:06.563Z,24.30
2022-08-16T08:11:41.938Z,24.40
2022-08-16T08:14:41.199Z,24.40
2022-08-16T08:17:21.411Z,24.60
2022-08-16T08:19:53.368Z,24.70
2022-08-16T08:22:22.498Z,24.80
2022-08-16T08:24:59.619Z,24.80
2022-08-16T08:27:27.990Z,24.90
2022-08-16T08:30:43.954Z,24.90
2022-08-16T08:33:00.246Z,25.00
2022-08-16T08:35:36.143Z,25.10
2022-08-16T08:38:04.482Z,25.20
2022-08-16T08:40:36.913Z,25.30
2022-08-16T08:43:12.581Z,25.50
2022-08-16T08:45:49.088Z,25.60
2022-08-16T08:48:33.771Z,25.70
2022-08-16T08:51:04.793Z,25.90
2022-08-16T08:53:33.412Z,26.00
2022-08-16T08:56:23.433Z,26.10
2022-08-16T08:58:54.728Z,26.20
2022-08-16T09:01:31.852Z,26.30
2022-08-16T09:04:14.323Z,26.40
2022-08-16T09:06:45.633Z,26.60
2022-08-16T09:09:16.815Z,26.70
2022-08-16T09:11:52.946Z,26.90
2022-08-16T09:14:36.331Z,27.10
2022-08-16T09:17:11.681Z,27.20
2022-08-16T09:19:55.315Z,27.30
2022-08-16T09:22:29.958Z,27.50
2022-08-16T09:25:11.247Z,27.60
2022-08-16T09:27:56.528Z,27.80
2022-08-16T09:30:35.929Z,27.80
2022-08-16T09:33:16.835Z,27.80
2022-08-16T09:35:47.587Z,27.50
2022-08-16T09:38:31.998Z,27.30
2022-08-16T09:41:03.486Z,27.50
2022-08-16T09:43:59.943Z,27.50
2022-08-16T09:46:45.335Z,27.50
2022-08-16T09:49:19.679Z,27.50
2022-08-16T09:51:57.178Z,27.50
2022-08-16T09:54:32.465Z,27.40
2022-08-16T09:57:01.284Z,27.20
2022-08-16T09:59:31.334Z,27.30
2022-08-16T10:02:26.783Z,27.40
2022-08-16T10:04:57.729Z,27.40
2022-08-16T10:07:26.220Z,27.60
2022-08-16T10:10:12.525Z,27.80
2022-08-16T10:13:04.201Z,27.90
2022-08-16T10:15:40.936Z,28.10
2022-08-16T10:18:56.762Z,28.30
2022-08-16T10:21:03.669Z,28.40
2022-08-16T10:23:39.546Z,28.50
2022-08-16T10:27:16.209Z,28.50
2022-08-16T10:29:01.821Z,28.50
2022-08-16T10:31:44.228Z,28.60
2022-08-16T10:34:31.709Z,28.60
2022-08-16T10:37:06.329Z,28.50
2022-08-16T10:39:41.421Z,28.50
2022-08-16T10:42:15.883Z,28.50
2022-08-16T10:44:58.147Z,28.60
2022-08-16T10:47:33.190Z,28.70
2022-08-16T10:50:07.604Z,28.70
2022-08-16T10:52:49.451Z,28.70
2022-08-16T10:58:11.717Z,28.70
2022-08-16T11:00:43.478Z,28.80
2022-08-16T11:03:43.124Z,28.70
2022-08-16T11:06:16.387Z,28.80
2022-08-16T11:09:21.033Z,29.00
2022-08-16T11:12:07.851Z,29.20
2022-08-16T11:14:26.700Z,29.30
2022-08-16T11:17:09.229Z,29.30
2022-08-16T11:22:42.304Z,29.10
2022-08-16T11:28:07.063Z,28.80
2022-08-16T11:30:38.928Z,28.70
2022-08-16T11:33:09.028Z,28.70
2022-08-16T11:38:51.526Z,28.70
2022-08-16T11:41:24.867Z,28.80
2022-08-16T11:43:57.559Z,29.00
2022-08-16T11:46:34.190Z,29.30
2022-08-16T11:49:15.104Z,29.60
2022-08-16T11:51:46.305Z,29.90
2022-08-16T11:54:20.373Z,30.00
2022-08-16T11:56:53.086Z,30.10
2022-08-16T11:59:28.849Z,30.30
2022-08-16T12:02:30.899Z,30.40
2022-08-16T12:05:01.289Z,30.60
2022-08-16T12:07:33.337Z,30.80
2022-08-16T12:10:01.813Z,31.00
2022-08-16T12:12:32.789Z,31.00
2022-08-16T12:15:02.629Z,31.00
2022-08-16T12:17:32.087Z,31.10
2022-08-16T12:20:00.918Z,31.30
2022-08-16T12:22:36.979Z,31.50
2022-08-16T12:25:05.906Z,31.70
2022-08-16T12:27:35.456Z,31.60
2022-08-16T12:30:08.495Z,31.50
2022-08-16T12:32:56.489Z,31.20
2022-08-16T12:35:27.827Z,31.00
2022-08-16T12:38:08.596Z,30.70
2022-08-16T12:40:52.974Z,30.60
2022-08-16T12:43:25.419Z,30.50
2022-08-16T12:45:58.186Z,30.50
2022-08-16T12:48:45.233Z,30.60
2022-08-16T12:51:24.786Z,30.60
2022-08-16T12:54:04.331Z,30.70
2022-08-16T12:56:34.198Z,30.70
2022-08-16T12:59:04.975Z,30.70
2022-08-16T13:01:38.163Z,30.80
2022-08-16T13:04:12.157Z,30.70
2022-08-16T13:06:54.562Z,30.60
2022-08-16T13:09:26.640Z,30.40
2022-08-16T13:12:11.346Z,30.30
2022-08-16T13:14:41.426Z,30.10
2022-08-16T13:17:19.174Z,30.10
2022-08-16T13:22:36.292Z,30.00
2022-08-16T13:25:06.567Z,29.80
2022-08-16T13:28:01.652Z,29.70
2022-08-16T13:30:37.636Z,29.60
2022-08-16T13:33:19.013Z,29.50
2022-08-16T13:36:04.161Z,29.40
2022-08-16T13:38:37.736Z,29.30
2022-08-16T13:41:10.318Z,29.20
2022-08-16T13:43:39.175Z,29.20
2022-08-16T13:46:11.233Z,29.30
2022-08-16T13:48:45.266Z,29.40
2022-08-16T13:51:20.856Z,29.40
2022-08-16T13:53:54.269Z,29.30
2022-08-16T13:56:37.553Z,29.30
2022-08-16T13:59:13.932Z,29.20
2022-08-16T14:01:55.932Z,29.30
2022-08-16T14:04:32.015Z,29.30
2022-08-16T14:07:05.584Z,29.30
2022-08-16T14:09:37.812Z,29.40
2022-08-16T14:12:17.910Z,29.60
2022-08-16T14:14:46.795Z,29.80
2022-08-16T14:17:16.537Z,30.00
2022-08-16T14:19:46.432Z,30.00
2022-08-16T14:22:31.042Z,30.00
2022-08-16T14:25:00.227Z,30.10
2022-08-16T14:27:34.294Z,30.10
2022-08-16T14:30:11.332Z,30.10
2022-08-16T14:32:43.816Z,29.90
2022-08-16T14:35:16.845Z,29.90
2022-08-16T14:37:45.904Z,29.80
2022-08-16T14:40:24.693Z,29.60
2022-08-16T14:43:05.635Z,29.50
2022-08-16T14:45:35.481Z,29.30
2022-08-16T14:48:05.656Z,29.10
2022-08-16T14:50:36.627Z,29.00
2022-08-16T14:53:10.091Z,28.90
2022-08-16T14:55:41.257Z,28.90
2022-08-16T14:58:19.447Z,28.80
2022-08-16T15:00:50.789Z,28.80
2022-08-16T15:03:21.084Z,28.70
2022-08-16T15:05:53.822Z,28.70
2022-08-16T15:08:36.370Z,28.50
2022-08-16T15:11:11.213Z,28.40
2022-08-16T15:13:46.618Z,28.30
2022-08-16T15:16:18.072Z,28.20
2022-08-16T15:18:48.478Z,28.10
2022-08-16T15:21:22.592Z,28.00
2022-08-16T15:23:51.185Z,28.00
2022-08-16T15:26:34.765Z,28.00
2022-08-16T15:29:11.783Z,28.00
2022-08-16T15:31:46.182Z,28.10
2022-08-16T15:34:22.143Z,28.10
2022-08-16T15:36:54.506Z,28.10
2022-08-16T15:39:30.472Z,28.10
2022-08-16T15:42:11.428Z,28.00
2022-08-16T15:44:58.605Z,27.90
2022-08-16T15:47:27.999Z,27.90
2022-08-16T15:49:58.044Z,27.80
2022-08-16T15:52:35.243Z,27.80
2022-08-16T15:55:12.853Z,27.60
2022-08-16T15:57:41.871Z,27.60
2022-08-16T16:00:14.612Z,27.60
2022-08-16T16:02:51.801Z,27.70
2022-08-16T16:05:26.255Z,27.70
2022-08-16T16:07:57.005Z,27.70
2022-08-16T16:10:43.348Z,27.60
2022-08-16T16:13:11.902Z,27.60
2022-08-16T16:15:44.879Z,27.50
2022-08-16T16:18:13.589Z,27.50
2022-08-16T16:20:54.293Z,27.50
2022-08-16T16:23:34.915Z,27.60
2022-08-16T16:26:05.989Z,27.50
2022-08-16T16:29:07.586Z,27.50
2022-08-16T16:31:27.546Z,27.40
2022-08-16T16:34:04.481Z,27.30
2022-08-16T16:36:33.514Z,27.20
2022-08-16T16:39:11.337Z,27.10
2022-08-16T16:41:49.513Z,27.10
2022-08-16T16:44:18.198Z,27.10
2022-08-16T16:47:07.774Z,27.00
2022-08-16T16:49:41.691Z,27.00
2022-08-16T16:52:12.273Z,27.00
2022-08-16T16:55:02.864Z,26.90
2022-08-16T16:57:58.322Z,26.90
2022-08-16T17:00:37.664Z,26.80
2022-08-16T17:03:17.493Z,26.70
2022-08-16T17:05:51.012Z,26.60
2022-08-16T17:08:40.821Z,26.60
2022-08-16T17:11:14.126Z,26.50
2022-08-16T17:13:43.495Z,26.40
2022-08-16T17:16:18.798Z,26.40
2022-08-16T17:19:16.925Z,26.40
2022-08-16T17:21:42.073Z,26.30
2022-08-16T17:24:18.355Z,26.30
2022-08-16T17:26:56.055Z,26.20
2022-08-16T17:29:30.824Z,26.20
2022-08-16T17:32:47.509Z,26.10
2022-08-16T17:34:55.691Z,26.10
2022-08-16T17:37:42.381Z,26.00
2022-08-16T17:40:32.028Z,26.00
2022-08-16T17:43:10.365Z,26.00
2022-08-16T17:45:41.313Z,25.90
2022-08-16T17:48:11.020Z,25.90
2022-08-16T17:50:43.973Z,25.90
2022-08-16T17:53:14.999Z,25.90
2022-08-16T17:55:52.655Z,25.80
2022-08-16T17:58:23.627Z,25.80
2022-08-16T18:00:56.500Z,25.80
2022-08-16T18:03:40.796Z,25.80
2022-08-16T18:06:20.280Z,25.80
2022-08-16T18:08:51.187Z,25.80
2022-08-16T18:11:26.266Z,25.60
2022-08-16T18:13:54.882Z,25.60
2022-08-16T18:16:23.227Z,25.50
2022-08-16T18:18:51.466Z,25.40
2022-08-16T18:21:38.195Z,25.40
2022-08-16T18:24:06.761Z,25.40
2022-08-16T18:26:35.055Z,25.30
2022-08-16T18:29:04.651Z,25.30
2022-08-16T18:31:32.911Z,25.20
2022-08-16T18:34:01.462Z,25.10
2022-08-16T18:36:31.070Z,25.00
2022-08-16T18:38:59.657Z,24.90
2022-08-16T18:41:28.884Z,24.80
2022-08-16T18:44:24.003Z,24.80
2022-08-16T18:46:50.781Z,24.70
2022-08-16T18:49:20.655Z,24.70
2022-08-16T18:51:50.971Z,24.70
2022-08-16T18:54:19.377Z,24.60
2022-08-16T18:56:55.434Z,24.60
2022-08-16T18:59:28.345Z,24.50
2022-08-16T19:02:00.208Z,24.50
2022-08-16T19:04:54.939Z,24.50
2022-08-16T19:07:23.400Z,24.50
2022-08-16T19:09:58.939Z,24.50
2022-08-16T19:12:38.540Z,24.50
2022-08-16T19:15:21.709Z,24.40
2022-08-16T19:17:51.304Z,24.40
2022-08-16T19:20:20.466Z,24.40
2022-08-16T19:23:09.827Z,24.40
2022-08-16T19:25:47.593Z,24.40
2022-08-16T19:28:50.015Z,24.40
2022-08-16T19:31:10.996Z,24.40
2022-08-16T19:33:40.778Z,24.30
2022-08-16T19:36:31.502Z,24.30
2022-08-16T19:39:05.634Z,24.30
2022-08-16T19:41:36.453Z,24.20
2022-08-16T19:44:06.978Z,24.20
2022-08-16T19:46:36.155Z,24.10
2022-08-16T19:49:07.474Z,24.10
2022-08-16T19:51:37.829Z,24.00
2022-08-16T19:54:10.785Z,24.00
2022-08-16T19:56:40.419Z,24.00
2022-08-16T19:59:19.243Z,24.00
2022-08-16T20:02:01.192Z,24.00
2022-08-16T20:04:31.018Z,23.90
2022-08-16T20:06:59.194Z,23.90
2022-08-16T20:09:29.001Z,23.80
2022-08-16T20:11:57.285Z,23.90
2022-08-16T20:14:26.784Z,23.80
2022-08-16T20:16:56.868Z,23.80
2022-08-16T20:19:27.391Z,23.80
2022-08-16T20:21:56.580Z,23.70
2022-08-16T20:24:35.196Z,23.70
2022-08-16T20:27:06.112Z,23.60
2022-08-16T20:29:35.002Z,23.60
2022-08-16T20:32:03.250Z,23.50
2022-08-16T20:34:33.336Z,23.50
2022-08-16T20:37:07.187Z,23.40
2022-08-16T20:39:35.663Z,23.40
2022-08-16T20:42:06.927Z,23.40
2022-08-16T20:44:36.677Z,23.30
2022-08-16T20:47:04.958Z,23.30
2022-08-16T20:49:33.241Z,23.30
2022-08-16T20:52:02.383Z,23.30
2022-08-16T20:54:32.247Z,23.20
2022-08-16T20:57:00.358Z,23.10
2022-08-16T20:59:32.877Z,23.10
2022-08-16T21:02:01.254Z,23.10
2022-08-16T21:04:29.822Z,23.00
2022-08-16T21:07:01.937Z,23.00
2022-08-16T21:09:33.541Z,23.00
2022-08-16T21:12:03.011Z,23.00
2022-08-16T21:14:38.925Z,23.00
2022-08-16T21:17:08.514Z,23.00
2022-08-16T21:19:36.819Z,22.90
2022-08-16T21:22:15.329Z,22.90
2022-08-16T21:24:46.441Z,22.90
2022-08-16T21:27:14.914Z,22.90
2022-08-16T21:29:47.102Z,22.90
2022-08-16T21:32:16.756Z,22.80
2022-08-16T21:34:46.998Z,22.80
2022-08-16T21:37:15.461Z,22.80
2022-08-16T21:39:44.217Z,22.80
2022-08-16T21:42:13.668Z,22.80
2022-08-16T21:44:42.325Z,22.70
2022-08-16T21:47:11.867Z,22.70
2022-08-16T21:49:40.138Z,22.70
2022-08-16T21:52:08.807Z,22.70
2022-08-16T21:54:38.360Z,22.70
2022-08-16T21:57:10.874Z,22.70
2022-08-16T21:59:39.692Z,22.60
2022-08-16T22:02:08.164Z,22.60
2022-08-16T22:04:39.040Z,22.60
2022-08-16T22:07:09.552Z,22.60
2022-08-16T22:09:37.858Z,22.60
2022-08-16T22:12:06.769Z,22.60
2022-08-16T22:14:35.300Z,22.50
2022-08-16T22:17:03.376Z,22.50
2022-08-16T22:19:33.516Z,22.50
2022-08-16T22:22:03.506Z,22.50
2022-08-16T22:24:31.665Z,22.50
2022-08-16T22:27:00.320Z,22.50
2022-08-16T22:29:28.503Z,22.60
2022-08-16T22:31:56.559Z,22.50
2022-08-16T22:34:25.219Z,22.50
2022-08-16T22:36:53.755Z,22.50
2022-08-16T22:39:23.959Z,22.40
2022-08-16T22:41:52.184Z,22.40
2022-08-16T22:44:20.616Z,22.30
2022-08-16T22:46:49.290Z,22.30
2022-08-16T22:49:17.411Z,22.20
2022-08-16T22:51:48.905Z,22.20
2022-08-16T22:54:43.797Z,22.10
2022-08-16T22:57:07.761Z,22.10
2022-08-16T22:59:36.263Z,22.10
2022-08-16T23:02:05.736Z,22.20
2022-08-16T23:04:34.056Z,22.10
2022-08-16T23:07:02.467Z,22.10
2022-08-16T23:09:32.695Z,22.10
2022-08-16T23:12:07.362Z,22.10
2022-08-16T23:14:36.988Z,22.00
2022-08-16T23:17:05.468Z,22.00
2022-08-16T23:19:34.072Z,22.00
2022-08-16T23:22:02.300Z,22.00
2022-08-16T23:24:37.112Z,22.00
2022-08-16T23:27:21.653Z,22.00
2022-08-16T23:29:51.388Z,22.00
2022-08-16T23:32:24.875Z,22.00
2022-08-16T23:34:53.119Z,22.00
2022-08-16T23:37:22.641Z,22.00
2022-08-16T23:39:54.595Z,22.00
2022-08-16T23:42:41.880Z,22.00
2022-08-16T23:45:19.277Z,22.00
2022-08-16T23:47:47.608Z,22.00
2022-08-16T23:50:15.796Z,22.00
2022-08-16T23:52:57.300Z,22.00
2022-08-16T23:55:25.678Z,22.00
2022-08-16T23:57:53.988Z,22.00
